Time;durP1;ratioP1;P1;durP2;ratioP2;P2;SDS_P1;SDS_P2;PMS_P1;PMS_P2;Temp;Humidity;BMP_temperature;BMP_pressure;BME280_temperature;BME280_humidity;BME280_pressure;Samples;Min_cycle;Max_cycle;Signal;HPM_P1;HPM_P2
2022/09/26 00:01:28;;;;;;;;;;;;;;;12.32;66.63;100043.55;1686570;84;20279;-77
2022/09/26 00:04:18;;;;;;;;;;;;;;;12.31;66.64;100042.70;1631802;85;20179;-77
2022/09/26 00:07:02;;;;;;;;;;;;;;;12.31;66.63;100039.25;1669605;84;20191;-77
2022/09/26 00:09:47;;;;;;;;;;;;;;;12.28;66.65;100040.20;1656758;84;20176;-77
2022/09/26 00:12:32;;;;;;;;;;;;;;;12.24;66.66;100038.60;1661461;84;20193;-77
2022/09/26 00:15:17;;;;;;;;;;;;;;;12.20;66.65;100040.89;1653615;84;20154;-77
2022/09/26 00:18:01;;;;;;;;;;;;;;;12.17;66.67;100031.92;1687007;84;20458;-77
2022/09/26 00:20:46;;;;;;;;;;;;;;;12.13;66.65;100027.28;1686256;84;20215;-77
2022/09/26 00:23:31;;;;;;;;;;;;;;;12.09;66.65;100030.86;1637273;84;20199;-77
2022/09/26 00:26:18;;;;;;;;;;;;;;;12.06;66.68;100027.52;1676478;84;20222;-77
2022/09/26 00:29:06;;;;;;;;;;;;;;;12.01;66.74;100026.81;1670309;84;20472;-77
2022/09/26 00:31:51;;;;;;;;;;;;;;;11.96;66.76;100017.08;1649207;84;20209;-77
2022/09/26 00:34:36;;;;;;;;;;;;;;;11.89;66.84;100013.37;1678536;84;20195;-77
2022/09/26 00:37:21;;;;;;;;;;;;;;;11.84;66.87;100017.84;1662281;84;20139;-77
2022/09/26 00:40:07;;;;;;;;;;;;;;;11.80;66.87;100016.25;1669212;84;20182;-77
2022/09/26 00:42:55;;;;;;;;;;;;;;;11.76;66.87;100018.94;1656909;84;20435;-77
2022/09/26 00:45:40;;;;;;;;;;;;;;;11.70;66.91;100012.65;1672966;84;20107;-77
2022/09/26 00:48:25;;;;;;;;;;;;;;;11.65;66.92;100006.77;1678740;84;20111;-77
2022/09/26 00:51:10;;;;;;;;;;;;;;;11.59;66.96;100008.64;1672991;84;20107;-77
2022/09/26 00:53:54;;;;;;;;;;;;;;;11.54;66.99;99998.02;1679019;84;20113;-78
2022/09/26 00:56:41;;;;;;;;;;;;;;;11.47;66.94;99992.62;1652523;84;20153;-77
2022/09/26 00:59:31;;;;;;;;;;;;;;;11.42;66.99;99990.64;1659244;84;20135;-77
2022/09/26 01:02:17;;;;;;;;;;;;;;;11.36;67.04;99985.20;1669926;84;20134;-77
2022/09/26 01:05:02;;;;;;;;;;;;;;;11.31;67.04;99988.81;1660202;84;20178;-77
2022/09/26 01:07:48;;;;;;;;;;;;;;;11.24;67.06;99986.40;1660682;84;20171;-77
2022/09/26 01:10:35;;;;;;;;;;;;;;;11.20;67.12;99987.82;1654335;84;20213;-77
2022/09/26 01:13:20;;;;;;;;;;;;;;;11.13;67.07;99986.30;1663928;84;20113;-78
2022/09/26 01:16:06;;;;;;;;;;;;;;;11.07;67.16;99991.20;1656189;84;20213;-77
2022/09/26 01:18:51;;;;;;;;;;;;;;;11.02;67.16;99987.05;1662517;84;20211;-77
2022/09/26 01:22:07;;;;;;;;;;;;;;;10.97;67.19;99983.29;1631975;86;20193;-77
2022/09/26 01:25:02;;;;;;;;;;;;;;;10.95;67.22;99988.50;1646069;86;20211;-77
2022/09/26 01:28:13;;;;;;;;;;;;;;;10.89;67.29;99976.22;1630313;83;20172;-77
2022/09/26 01:31:07;;;;;;;;;;;;;;;10.84;67.27;99976.78;1636694;86;20191;-77
2022/09/26 01:34:10;;;;;;;;;;;;;;;10.82;67.29;99972.09;1626998;86;21214;-77
2022/09/26 01:36:59;;;;;;;;;;;;;;;10.79;67.25;99975.61;1634675;86;20196;-78
2022/09/26 01:39:53;;;;;;;;;;;;;;;10.76;67.28;99973.55;1618858;86;20201;-77
2022/09/26 01:42:47;;;;;;;;;;;;;;;10.73;67.26;99974.48;1640782;86;20197;-77
2022/09/26 01:46:09;;;;;;;;;;;;;;;10.69;67.31;99975.90;1654875;86;20201;-77
2022/09/26 01:49:15;;;;;;;;;;;;;;;10.64;67.33;99979.05;1639124;86;20204;-78
2022/09/26 01:52:20;;;;;;;;;;;;;;;10.56;67.33;99981.83;1656259;86;20206;-77
2022/09/26 01:55:11;;;;;;;;;;;;;;;10.50;67.49;99978.12;1633669;86;20238;-77
2022/09/26 01:58:08;;;;;;;;;;;;;;;10.48;67.64;99966.52;1624089;86;20516;-77
2022/09/26 02:00:57;;;;;;;;;;;;;;;10.46;67.55;99967.00;1633971;86;20204;-77
2022/09/26 02:03:45;;;;;;;;;;;;;;;10.45;67.54;99961.43;1646447;86;20203;-77
2022/09/26 02:06:36;;;;;;;;;;;;;;;10.40;67.49;99959.41;1621093;86;20231;-77
2022/09/26 02:09:39;;;;;;;;;;;;;;;10.37;67.66;99950.47;1634790;86;20215;-77
2022/09/26 02:12:27;;;;;;;;;;;;;;;10.40;67.64;99948.25;1661698;86;20442;-78
2022/09/26 02:15:15;;;;;;;;;;;;;;;10.42;67.64;99955.05;1637797;86;20197;-77
2022/09/26 02:18:09;;;;;;;;;;;;;;;10.43;67.73;99961.91;1637513;86;20141;-77
2022/09/26 02:21:06;;;;;;;;;;;;;;;10.42;67.72;99955.05;1645551;85;20166;-77
2022/09/26 02:23:53;;;;;;;;;;;;;;;10.40;67.75;99949.07;1639434;86;20481;-77
2022/09/26 02:26:38;;;;;;;;;;;;;;;10.41;67.86;99952.50;1653685;86;20132;-77
2022/09/26 02:29:23;;;;;;;;;;;;;;;10.43;67.87;99939.95;1638264;86;20133;-77
2022/09/26 02:32:14;;;;;;;;;;;;;;;10.46;67.87;99939.86;1634928;86;20111;-77
2022/09/26 02:34:59;;;;;;;;;;;;;;;10.48;67.89;99927.75;1610472;87;20116;-77
2022/09/26 02:37:44;;;;;;;;;;;;;;;10.48;67.89;99921.73;1589855;88;20551;-77
2022/09/26 02:40:35;;;;;;;;;;;;;;;10.49;67.95;99916.52;1600692;87;20210;-77
2022/09/26 02:43:40;;;;;;;;;;;;;;;10.51;67.96;99910.02;1600085;87;20235;-77
2022/09/26 02:46:50;;;;;;;;;;;;;;;10.54;68.01;99913.37;1604070;87;20208;-77
2022/09/26 02:49:56;;;;;;;;;;;;;;;10.57;68.05;99912.44;1611765;87;20176;-77
2022/09/26 02:53:01;;;;;;;;;;;;;;;10.57;68.09;99915.88;1597127;87;20148;-77
2022/09/26 02:55:52;;;;;;;;;;;;;;;10.57;68.16;99913.29;1611816;87;20209;-77
2022/09/26 02:59:00;;;;;;;;;;;;;;;10.60;68.22;99914.50;1605129;88;20201;-77
2022/09/26 03:01:55;;;;;;;;;;;;;;;10.64;68.18;99914.41;1606765;87;20613;-77
2022/09/26 03:04:52;;;;;;;;;;;;;;;10.66;68.22;99918.66;1611028;87;20456;-77
2022/09/26 03:07:40;;;;;;;;;;;;;;;10.69;68.22;99913.84;1601416;87;20235;-77
2022/09/26 03:10:26;;;;;;;;;;;;;;;10.69;68.18;99913.40;1610684;87;20565;-77
2022/09/26 03:13:13;;;;;;;;;;;;;;;10.70;68.24;99904.75;1598411;87;20225;-77
2022/09/26 03:15:58;;;;;;;;;;;;;;;10.73;68.17;99912.88;1600122;87;20148;-77
2022/09/26 03:18:50;;;;;;;;;;;;;;;10.72;68.23;99904.71;1604999;87;20372;-78
2022/09/26 03:21:35;;;;;;;;;;;;;;;10.71;68.25;99909.03;1568323;89;20581;-77
2022/09/26 03:24:20;;;;;;;;;;;;;;;10.71;68.33;99909.48;1604529;88;20480;-77
2022/09/26 03:27:05;;;;;;;;;;;;;;;10.69;68.32;99907.38;1604160;86;20191;-77
2022/09/26 03:29:50;;;;;;;;;;;;;;;10.66;68.41;99903.14;1583129;89;20239;-77
2022/09/26 03:32:36;;;;;;;;;;;;;;;10.66;68.45;99909.61;1576124;89;20227;-77
2022/09/26 03:35:21;;;;;;;;;;;;;;;10.65;68.46;99905.33;1605040;88;20214;-77
2022/09/26 03:38:06;;;;;;;;;;;;;;;10.64;68.48;99902.34;1590589;88;38039;-77
2022/09/26 03:40:52;;;;;;;;;;;;;;;10.64;68.52;99907.95;1573300;89;20222;-76
2022/09/26 03:43:37;;;;;;;;;;;;;;;10.64;68.52;99907.95;1573895;89;20202;-77
2022/09/26 03:46:23;;;;;;;;;;;;;;;10.64;68.59;99913.12;1570275;88;20450;-77
2022/09/26 03:49:09;;;;;;;;;;;;;;;10.63;68.66;99906.25;1587181;89;20191;-77
2022/09/26 03:51:54;;;;;;;;;;;;;;;10.62;68.67;99901.53;1581340;89;20204;-77
2022/09/26 03:54:39;;;;;;;;;;;;;;;10.65;68.70;99904.03;1575803;89;20206;-77
2022/09/26 03:57:24;;;;;;;;;;;;;;;10.66;68.73;99903.14;1580193;88;20245;-77
2022/09/26 04:00:10;;;;;;;;;;;;;;;10.66;68.73;99903.59;1569535;89;20189;-77
2022/09/26 04:02:55;;;;;;;;;;;;;;;10.64;68.77;99896.31;1582873;89;20144;-77
2022/09/26 04:05:39;;;;;;;;;;;;;;;10.61;68.74;99894.22;1577882;89;20130;-77
2022/09/26 04:08:23;;;;;;;;;;;;;;;10.61;68.76;99890.34;1584886;89;20435;-78
2022/09/26 04:11:13;;;;;;;;;;;;;;;10.60;68.82;99883.92;1583764;88;20473;-77
2022/09/26 04:13:57;;;;;;;;;;;;;;;10.60;68.79;99882.18;1575944;89;20149;-77
2022/09/26 04:16:42;;;;;;;;;;;;;;;10.60;68.87;99882.18;1598632;88;20213;-78
2022/09/26 04:19:27;;;;;;;;;;;;;;;10.59;68.90;99877.90;1599926;86;20664;-78
2022/09/26 04:22:12;;;;;;;;;;;;;;;10.59;68.92;99875.31;1612046;87;20489;-78
2022/09/26 04:24:57;;;;;;;;;;;;;;;10.59;68.96;99877.90;1607399;87;21337;-77
2022/09/26 04:27:41;;;;;;;;;;;;;;;10.59;68.99;99879.20;1599994;87;20259;-77
2022/09/26 04:30:26;;;;;;;;;;;;;;;10.60;69.05;99877.45;1630984;86;20201;-77
2022/09/26 04:33:11;;;;;;;;;;;;;;;10.61;69.07;99883.03;1589022;88;20321;-77
2022/09/26 04:36:00;;;;;;;;;;;;;;;10.63;69.02;99885.57;1603592;87;20229;-77
2022/09/26 04:38:46;;;;;;;;;;;;;;;10.61;68.93;99883.03;1610994;88;20208;-77
2022/09/26 04:41:30;;;;;;;;;;;;;;;10.57;69.03;99884.85;1592284;87;20201;-77
2022/09/26 04:44:15;;;;;;;;;;;;;;;10.57;69.07;99883.56;1608449;87;20222;-76
2022/09/26 04:46:59;;;;;;;;;;;;;;;10.56;69.12;99883.16;1611488;87;20206;-76
2022/09/26 04:49:44;;;;;;;;;;;;;;;10.56;69.16;99878.43;1610481;87;20229;-77
2022/09/26 04:52:29;;;;;;;;;;;;;;;10.54;69.17;99876.33;1605865;87;20221;-76
2022/09/26 04:55:13;;;;;;;;;;;;;;;10.53;69.17;99882.39;1607848;87;20593;-77
2022/09/26 04:57:58;;;;;;;;;;;;;;;10.53;69.23;99879.80;1601393;87;20239;-76
2022/09/26 05:00:44;;;;;;;;;;;;;;;10.53;69.28;99879.36;1604634;87;20401;-77
2022/09/26 05:03:28;;;;;;;;;;;;;;;10.56;69.27;99875.84;1602656;87;20200;-77
2022/09/26 05:06:14;;;;;;;;;;;;;;;10.59;69.28;99879.20;1601383;87;20197;-77
2022/09/26 05:08:59;;;;;;;;;;;;;;;10.61;69.29;99880.00;1600894;87;20178;-77
2022/09/26 05:11:43;;;;;;;;;;;;;;;10.63;69.35;99881.69;1614150;87;20187;-77
2022/09/26 05:14:28;;;;;;;;;;;;;;;10.61;69.31;99884.32;1605716;87;20558;-77
2022/09/26 05:17:14;;;;;;;;;;;;;;;10.64;69.36;99883.39;1627417;86;20112;-77
2022/09/26 05:19:59;;;;;;;;;;;;;;;10.63;69.39;99878.66;1619405;87;20134;-77
2022/09/26 05:22:44;;;;;;;;;;;;;;;10.64;69.44;99871.75;1622546;87;20138;-77
2022/09/26 05:28:33;;;;;;;;;;;;;;;10.65;69.52;99870.42;1592919;88;20207;-77
2022/09/26 05:31:18;;;;;;;;;;;;;;;10.68;69.50;99873.36;1588720;88;20191;-77
2022/09/26 05:34:04;;;;;;;;;;;;;;;10.71;69.60;99882.33;1588579;87;20475;-77
2022/09/26 05:36:50;;;;;;;;;;;;;;;10.73;69.60;99881.84;1585667;88;20496;-77
2022/09/26 05:42:38;;;;;;;;;;;;;;;10.73;69.67;99876.22;1609813;87;20146;-77
2022/09/26 05:45:23;;;;;;;;;;;;;;;10.74;69.76;99865.44;1601457;88;20207;-77
2022/09/26 05:48:07;;;;;;;;;;;;;;;10.76;69.73;99866.23;1595897;88;20227;-77
2022/09/26 05:50:52;;;;;;;;;;;;;;;10.79;69.77;99867.00;1595210;88;20981;-77
2022/09/26 05:53:39;;;;;;;;;;;;;;;10.85;69.85;99871.15;1593077;88;20434;-77
2022/09/26 05:56:24;;;;;;;;;;;;;;;10.89;69.83;99872.75;1594314;88;20216;-77
2022/09/26 05:59:08;;;;;;;;;;;;;;;10.94;69.96;99874.73;1585483;89;20211;-77
2022/09/26 06:01:53;;;;;;;;;;;;;;;10.95;69.91;99869.52;1586608;88;20213;-77
2022/09/26 06:04:38;;;;;;;;;;;;;;;11.01;69.97;99869.78;1589147;88;20540;-77
2022/09/26 06:07:23;;;;;;;;;;;;;;;11.08;70.03;99874.33;1575619;89;20622;-77
2022/09/26 06:10:07;;;;;;;;;;;;;;;11.13;70.08;99877.63;1591891;88;20145;-77
2022/09/26 06:12:52;;;;;;;;;;;;;;;11.19;70.02;99880.03;1591260;88;20215;-77
2022/09/26 06:15:38;;;;;;;;;;;;;;;11.24;70.01;99881.59;1599545;88;20656;-77
2022/09/26 06:18:23;;;;;;;;;;;;;;;11.31;70.06;99892.59;1600875;87;20435;-77
2022/09/26 06:21:10;;;;;;;;;;;;;;;11.37;70.08;99895.00;1587195;87;20224;-77
2022/09/26 06:23:55;;;;;;;;;;;;;;;11.45;70.11;99889.55;1588481;88;20498;-77
2022/09/26 06:26:40;;;;;;;;;;;;;;;11.54;70.12;99886.23;1597349;88;20207;-77
2022/09/26 06:29:25;;;;;;;;;;;;;;;11.66;70.12;99893.22;1590112;88;20190;-77
2022/09/26 06:32:09;;;;;;;;;;;;;;;11.75;70.13;99893.77;1596907;88;20190;-77
2022/09/26 06:34:53;;;;;;;;;;;;;;;11.85;70.09;99891.77;1600664;88;20187;-77
2022/09/26 06:37:39;;;;;;;;;;;;;;;11.95;70.14;99892.31;1583101;88;20208;-77
2022/09/26 06:40:23;;;;;;;;;;;;;;;12.06;70.14;99890.17;1599203;88;20573;-77
2022/09/26 06:43:08;;;;;;;;;;;;;;;12.15;70.15;99896.34;1593365;87;20183;-77
2022/09/26 06:45:52;;;;;;;;;;;;;;;12.25;70.12;99895.14;1602959;87;20223;-77
2022/09/26 06:48:37;;;;;;;;;;;;;;;12.32;70.17;99900.96;1584015;88;20484;-77
2022/09/26 06:51:22;;;;;;;;;;;;;;;12.37;70.18;99903.79;1583298;88;20190;-77
2022/09/26 06:54:06;;;;;;;;;;;;;;;12.43;70.20;99905.33;1588933;88;20186;-77
2022/09/26 06:56:52;;;;;;;;;;;;;;;12.44;70.19;99904.42;1594089;88;20213;-77
2022/09/26 06:59:37;;;;;;;;;;;;;;;12.46;70.15;99903.92;1591457;88;20162;-77
2022/09/26 07:02:25;;;;;;;;;;;;;;;12.49;70.18;99900.74;1596421;88;20469;-77
2022/09/26 07:05:09;;;;;;;;;;;;;;;12.53;70.28;99902.78;1598122;87;20517;-77
2022/09/26 07:07:54;;;;;;;;;;;;;;;12.57;70.27;99900.02;1597786;87;20203;-77
2022/09/26 07:10:38;;;;;;;;;;;;;;;12.65;70.38;99895.02;1591244;87;20381;-77
2022/09/26 07:13:23;;;;;;;;;;;;;;;12.72;70.34;99896.48;1594845;88;20210;-76
2022/09/26 07:16:08;;;;;;;;;;;;;;;12.81;70.26;99900.05;1589058;87;20214;-76
2022/09/26 07:18:53;;;;;;;;;;;;;;;12.89;70.42;99895.42;1591762;88;20196;-77
2022/09/26 07:21:38;;;;;;;;;;;;;;;12.95;70.39;99895.20;1597685;88;20201;-77
2022/09/26 07:24:22;;;;;;;;;;;;;;;13.02;70.46;99893.19;1586896;88;20187;-77
2022/09/26 07:27:07;;;;;;;;;;;;;;;13.10;70.36;99892.45;1587746;88;20217;-77
2022/09/26 07:29:52;;;;;;;;;;;;;;;13.17;70.53;99897.38;1595247;88;20390;-77
2022/09/26 07:32:37;;;;;;;;;;;;;;;13.20;70.37;99896.42;1591641;88;20440;-77
2022/09/26 07:35:27;;;;;;;;;;;;;;;13.20;70.33;99895.13;1585978;88;20732;-77
2022/09/26 07:38:09;;;;;;;;;;;;;;;13.22;70.33;99898.06;1604754;88;20173;-77
2022/09/26 07:40:54;;;;;;;;;;;;;;;13.29;70.38;99904.31;1589178;88;20268;-77
2022/09/26 07:43:39;;;;;;;;;;;;;;;13.34;70.49;99904.98;1595663;88;20522;-77
2022/09/26 07:52:30;;;;;;;;;;;;;;;13.65;70.37;99900.70;1581295;88;20230;-77
2022/09/26 07:55:21;;;;;;;;;;;;;;;13.80;70.44;99902.23;1580030;88;20191;-77
2022/09/26 07:58:06;;;;;;;;;;;;;;;13.91;70.35;99897.45;1595855;88;20212;-77
2022/09/26 08:00:50;;;;;;;;;;;;;;;14.03;70.42;99894.80;1585268;88;20202;-77
2022/09/26 08:03:35;;;;;;;;;;;;;;;14.18;70.33;99898.48;1584573;88;20521;-77
2022/09/26 08:06:20;;;;;;;;;;;;;;;14.37;70.37;99894.20;1586779;88;20366;-77
2022/09/26 08:09:05;;;;;;;;;;;;;;;14.59;70.31;99895.41;1593472;88;20227;-77
2022/09/26 08:11:50;;;;;;;;;;;;;;;14.69;70.21;99899.76;1590651;88;21215;-77
2022/09/26 08:14:36;;;;;;;;;;;;;;;14.78;70.20;99896.30;1583324;88;20202;-77
2022/09/26 08:17:21;;;;;;;;;;;;;;;14.88;70.19;99891.06;1595309;88;20723;-77
2022/09/26 08:20:06;;;;;;;;;;;;;;;15.03;70.07;99890.83;1592718;88;20202;-77
2022/09/26 08:22:56;;;;;;;;;;;;;;;15.13;69.97;99888.62;1589586;88;20188;-77
2022/09/26 08:25:41;;;;;;;;;;;;;;;15.17;69.99;99889.70;1585483;88;20222;-77
2022/09/26 08:28:27;;;;;;;;;;;;;;;15.30;70.08;99891.73;1590365;88;20242;-77
2022/09/26 08:31:12;;;;;;;;;;;;;;;15.41;69.96;99893.38;1578479;88;20198;-77
2022/09/26 08:33:57;;;;;;;;;;;;;;;15.50;70.01;99887.28;1587731;88;20226;-77
2022/09/26 08:36:41;;;;;;;;;;;;;;;15.62;69.93;99891.06;1586292;88;20183;-77
2022/09/26 08:39:26;;;;;;;;;;;;;;;15.76;69.88;99894.30;1591443;88;20146;-77
2022/09/26 08:42:33;;;;;;;;;;;;;;;15.84;69.65;99891.71;1584829;89;20214;-77
2022/09/26 08:46:59;;;;;;;;;;;;;;;15.87;69.61;99896.77;1591611;88;20560;-77
2022/09/26 08:48:57;;;;;;;;;;;;;;;15.88;69.72;99902.37;1551178;90;20315;-77
2022/09/26 08:51:45;;;;;;;;;;;;;;;15.94;69.65;99899.92;1551750;90;20217;-77
2022/09/26 08:54:37;;;;;;;;;;;;;;;16.02;69.59;99893.03;1560402;88;20230;-77
2022/09/26 08:57:31;;;;;;;;;;;;;;;16.09;69.42;99890.04;1543368;90;20250;-77
2022/09/26 09:00:23;;;;;;;;;;;;;;;16.12;69.43;99884.64;1550751;90;20212;-77
2022/09/26 09:03:32;;;;;;;;;;;;;;;16.20;69.34;99879.03;1553053;90;20520;-77
2022/09/26 09:06:18;;;;;;;;;;;;;;;16.23;69.25;99879.72;1551656;90;20233;-77
2022/09/26 09:09:02;;;;;;;;;;;;;;;16.21;69.31;99886.78;1554358;89;20587;-77
2022/09/26 09:11:50;;;;;;;;;;;;;;;16.27;69.30;99881.72;1552545;90;20230;-77
2022/09/26 09:14:39;;;;;;;;;;;;;;;16.32;69.18;99881.48;1553619;90;20261;-77
2022/09/26 09:17:35;;;;;;;;;;;;;;;16.34;68.96;99882.25;1554647;89;20169;-77
2022/09/26 09:20:26;;;;;;;;;;;;;;;16.29;68.79;99881.64;1583542;88;20463;-78
2022/09/26 09:23:43;;;;;;;;;;;;;;;16.23;68.79;99886.25;1556837;89;20340;-78
2022/09/26 09:26:34;;;;;;;;;;;;;;;16.16;68.67;99890.55;1587754;88;20186;-77
2022/09/26 09:29:45;;;;;;;;;;;;;;;16.07;68.70;99894.95;1589499;88;20200;-77
2022/09/26 09:32:33;;;;;;;;;;;;;;;15.96;68.74;99892.88;1595724;88;20962;-77
2022/09/26 09:35:21;;;;;;;;;;;;;;;15.86;68.69;99898.16;1588462;88;20202;-77
2022/09/26 09:38:09;;;;;;;;;;;;;;;15.77;68.76;99903.36;1582942;88;20264;-77
2022/09/26 09:41:03;;;;;;;;;;;;;;;15.70;68.63;99905.03;1575703;89;20480;-77
2022/09/26 09:43:57;;;;;;;;;;;;;;;15.61;68.61;99906.31;1591222;88;20194;-77
2022/09/26 09:46:42;;;;;;;;;;;;;;;15.55;68.58;99900.09;1599315;88;20194;-77
2022/09/26 09:49:26;;;;;;;;;;;;;;;15.52;68.53;99906.29;1583375;88;20520;-77
2022/09/26 09:52:27;;;;;;;;;;;;;;;15.50;68.50;99905.98;1589312;88;20190;-77
2022/09/26 09:55:18;;;;;;;;;;;;;;;15.49;68.51;99906.89;1585283;88;20200;-77
2022/09/26 09:58:15;;;;;;;;;;;;;;;15.53;68.41;99898.86;1610538;87;20569;-77
2022/09/26 10:01:08;;;;;;;;;;;;;;;15.59;68.48;99899.06;1587106;88;20192;-77
2022/09/26 10:04:09;;;;;;;;;;;;;;;15.66;68.37;99900.42;1587174;88;20217;-77
2022/09/26 10:06:54;;;;;;;;;;;;;;;15.68;68.26;99902.95;1596220;87;20218;-77
2022/09/26 10:09:41;;;;;;;;;;;;;;;15.67;68.16;99898.20;1581599;88;20161;-77
2022/09/26 10:12:31;;;;;;;;;;;;;;;15.68;68.18;99895.98;1602809;88;20252;-77
2022/09/26 10:15:19;;;;;;;;;;;;;;;15.73;68.20;99900.52;1605290;88;21203;-77
2022/09/26 10:18:06;;;;;;;;;;;;;;;15.80;68.11;99895.38;1599686;87;20227;-77
2022/09/26 10:20:57;;;;;;;;;;;;;;;15.87;68.05;99890.26;1603921;88;20190;-77
2022/09/26 10:23:47;;;;;;;;;;;;;;;15.95;68.05;99885.13;1596345;88;20143;-77
2022/09/26 10:26:33;;;;;;;;;;;;;;;15.99;67.96;99884.05;1581899;88;20212;-77
2022/09/26 10:29:24;;;;;;;;;;;;;;;16.04;67.75;99888.13;1592130;88;20675;-77
2022/09/26 10:32:10;;;;;;;;;;;;;;;16.13;67.80;99889.39;1587416;88;20325;-77
2022/09/26 10:35:19;;;;;;;;;;;;;;;16.21;67.74;99883.33;1603974;88;20208;-77
2022/09/26 10:38:22;;;;;;;;;;;;;;;16.27;67.63;99888.23;1577229;88;20187;-77
2022/09/26 10:41:06;;;;;;;;;;;;;;;16.32;67.60;99885.39;1593292;88;20242;-77
2022/09/26 10:43:58;;;;;;;;;;;;;;;16.33;67.60;99877.95;1600121;88;20588;-77
2022/09/26 10:46:50;;;;;;;;;;;;;;;16.40;67.57;99881.47;1590124;88;20664;-77
2022/09/26 10:49:39;;;;;;;;;;;;;;;16.47;67.47;99876.78;1587696;88;20134;-77
2022/09/26 10:52:30;;;;;;;;;;;;;;;16.48;67.50;99871.48;1594350;88;20532;-77
2022/09/26 10:55:17;;;;;;;;;;;;;;;16.46;67.41;99866.80;1586660;88;20234;-77
2022/09/26 10:58:08;;;;;;;;;;;;;;;16.39;67.38;99863.28;1594700;88;20270;-77
2022/09/26 11:00:53;;;;;;;;;;;;;;;16.33;67.37;99865.75;1594437;88;20185;-77
2022/09/26 11:03:44;;;;;;;;;;;;;;;16.25;67.30;99863.99;1587880;88;20216;-77
2022/09/26 11:06:34;;;;;;;;;;;;;;;16.20;67.23;99869.91;1575590;88;20162;-77
2022/09/26 11:09:19;;;;;;;;;;;;;;;16.11;67.16;99867.80;1594886;88;20491;-77
2022/09/26 11:12:27;;;;;;;;;;;;;;;16.05;67.11;99869.41;1587279;88;20259;-77
2022/09/26 11:15:13;;;;;;;;;;;;;;;15.96;67.17;99862.89;1593175;86;20649;-77
2022/09/26 11:17:59;;;;;;;;;;;;;;;15.92;67.23;99863.95;1590538;88;20466;-77
2022/09/26 11:20:50;;;;;;;;;;;;;;;15.89;67.17;99857.59;1592015;88;20982;-77
2022/09/26 11:23:41;;;;;;;;;;;;;;;15.87;67.14;99862.04;1591368;88;20230;-77
2022/09/26 11:27:04;;;;;;;;;;;;;;;15.86;67.06;99857.74;1593962;86;20584;-77
2022/09/26 11:29:54;;;;;;;;;;;;;;;15.83;67.00;99863.95;1587999;88;20227;-78
2022/09/26 11:32:43;;;;;;;;;;;;;;;15.79;67.07;99867.62;1591142;88;20290;-78
2022/09/26 11:35:42;;;;;;;;;;;;;;;15.73;66.96;99858.80;1591145;88;20211;-78
2022/09/26 11:38:45;;;;;;;;;;;;;;;15.65;66.90;99853.12;1593612;88;20207;-77
2022/09/26 11:49:21;;;;;;;;;;;;;;;15.43;66.89;99852.47;1579668;88;20202;-77
2022/09/26 11:52:16;;;;;;;;;;;;;;;15.38;66.88;99854.45;1574467;88;20208;-77
2022/09/26 11:55:16;;;;;;;;;;;;;;;15.37;66.82;99848.86;1592867;88;20371;-77
2022/09/26 11:58:24;;;;;;;;;;;;;;;15.37;66.84;99847.09;1579998;88;20203;-77
2022/09/26 12:01:16;;;;;;;;;;;;;;;15.33;66.72;99845.55;1603356;88;20463;-78
2022/09/26 12:04:10;;;;;;;;;;;;;;;15.32;66.73;99852.14;1569803;89;20219;-78
2022/09/26 12:07:02;;;;;;;;;;;;;;;15.29;66.53;99851.83;1582957;88;20188;-78
2022/09/26 12:09:55;;;;;;;;;;;;;;;15.21;66.58;99848.28;1604927;88;20201;-78
2022/09/26 12:13:10;;;;;;;;;;;;;;;15.14;66.61;99846.88;1596375;88;20215;-78
2022/09/26 12:16:14;;;;;;;;;;;;;;;15.12;66.64;99842.66;1589608;88;20175;-79
2022/09/26 12:19:05;;;;;;;;;;;;;;;15.02;66.65;99842.27;1580102;87;21005;-77
2022/09/26 12:22:34;;;;;;;;;;;;;;;14.95;66.72;99846.08;1591845;88;20157;-76
2022/09/26 12:25:31;;;;;;;;;;;;;;;14.88;66.79;99837.70;1575896;88;20248;-77
2022/09/26 12:28:42;;;;;;;;;;;;;;;14.81;66.82;99837.59;1571008;89;20205;-77
2022/09/26 12:31:40;;;;;;;;;;;;;;;14.79;66.88;99835.98;1572999;89;20219;-77
2022/09/26 12:34:43;;;;;;;;;;;;;;;14.77;66.94;99833.44;1570776;89;20193;-80
2022/09/26 12:37:56;;;;;;;;;;;;;;;14.77;67.03;99823.03;1574549;89;20202;-80
2022/09/26 12:40:55;;;;;;;;;;;;;;;14.78;67.04;99823.42;1573843;89;20535;-80
2022/09/26 12:43:49;;;;;;;;;;;;;;;14.78;67.04;99816.91;1605013;85;267712;-80
2022/09/26 12:46:57;;;;;;;;;;;;;;;14.81;67.09;99816.77;1651244;85;20250;-80
2022/09/26 12:50:15;;;;;;;;;;;;;;;14.80;66.99;99815.08;1648309;85;20266;-80
2022/09/26 12:53:18;;;;;;;;;;;;;;;14.80;67.03;99809.03;1651542;85;20288;-80
2022/09/26 12:56:14;;;;;;;;;;;;;;;14.78;67.04;99813.47;1650852;85;20127;-80
2022/09/26 12:59:22;;;;;;;;;;;;;;;14.77;67.05;99809.17;1620551;86;20593;-80
2022/09/26 13:02:14;;;;;;;;;;;;;;;14.79;67.11;99803.44;1651404;85;20193;-80
2022/09/26 13:05:09;;;;;;;;;;;;;;;14.82;67.11;99803.30;1634372;86;20181;-80
2022/09/26 13:08:15;;;;;;;;;;;;;;;14.87;67.10;99800.03;1621819;86;20168;-80
2022/09/26 13:11:30;;;;;;;;;;;;;;;14.91;67.05;99795.06;1647531;86;20596;-80
2022/09/26 13:14:42;;;;;;;;;;;;;;;14.95;66.99;99791.86;1647308;86;20403;-80
2022/09/26 13:17:35;;;;;;;;;;;;;;;15.02;66.99;99789.36;1639763;86;20207;-80
2022/09/26 13:20:40;;;;;;;;;;;;;;;15.07;66.97;99789.52;1623547;84;20227;-80
2022/09/26 13:23:37;;;;;;;;;;;;;;;15.14;66.97;99786.98;1644051;86;20171;-80
2022/09/26 13:26:33;;;;;;;;;;;;;;;15.18;66.91;99782.02;1633290;86;20212;-80
2022/09/26 13:29:21;;;;;;;;;;;;;;;15.17;66.61;99775.12;1630435;86;20211;-77
2022/09/26 13:32:21;;;;;;;;;;;;;;;15.15;66.65;99777.41;1636441;86;20501;-76
2022/09/26 13:35:20;;;;;;;;;;;;;;;15.17;66.67;99771.21;1632742;86;20487;-76
2022/09/26 13:38:27;;;;;;;;;;;;;;;15.20;66.60;99772.83;1634406;86;20204;-76
2022/09/26 13:41:25;;;;;;;;;;;;;;;15.22;66.58;99770.53;1636662;86;20511;-76
2022/09/26 13:44:42;;;;;;;;;;;;;;;15.26;66.66;99763.88;1637392;86;20154;-76
2022/09/26 13:47:39;;;;;;;;;;;;;;;15.29;66.54;99770.23;1610485;87;20215;-76
2022/09/26 13:50:43;;;;;;;;;;;;;;;15.31;66.63;99768.40;1660356;85;20588;-76
2022/09/26 13:53:32;;;;;;;;;;;;;;;15.36;66.67;99772.92;1661174;85;20623;-76
2022/09/26 13:56:35;;;;;;;;;;;;;;;15.34;66.42;99759.98;1657651;85;20367;-76
2022/09/26 13:59:24;;;;;;;;;;;;;;;15.34;66.44;99761.28;1657402;85;20254;-76
2022/09/26 14:02:22;;;;;;;;;;;;;;;15.34;66.43;99759.13;1645453;86;20135;-76
2022/09/26 14:05:21;;;;;;;;;;;;;;;15.32;66.41;99754.45;1628436;86;20464;-79
2022/09/26 14:11:51;;;;;;;;;;;;;;;15.31;66.50;99734.54;1644335;86;20147;-79
2022/09/26 14:14:45;;;;;;;;;;;;;;;15.31;66.42;99731.47;1640335;85;20487;-77
2022/09/26 14:17:42;;;;;;;;;;;;;;;15.29;66.37;99738.52;1635224;85;20164;-78
2022/09/26 14:20:30;;;;;;;;;;;;;;;15.26;66.20;99737.83;1635619;86;20111;-78
2022/09/26 14:23:35;;;;;;;;;;;;;;;15.22;66.09;99735.38;1627891;86;20604;-77
2022/09/26 14:26:28;;;;;;;;;;;;;;;15.23;66.17;99729.70;1629733;86;20485;-77
2022/09/26 14:29:32;;;;;;;;;;;;;;;15.26;66.17;99719.59;1615101;86;20108;-77
2022/09/26 14:32:22;;;;;;;;;;;;;;;15.32;66.12;99719.30;1627262;86;20134;-77
2022/09/26 14:35:19;;;;;;;;;;;;;;;15.39;66.09;99721.52;1634563;86;20125;-78
2022/09/26 14:38:08;;;;;;;;;;;;;;;15.40;66.00;99716.69;1637237;86;20134;-80
2022/09/26 14:40:55;;;;;;;;;;;;;;;15.42;66.00;99719.22;1654264;86;20703;-80
2022/09/26 14:43:40;;;;;;;;;;;;;;;15.44;66.04;99718.69;1627683;86;20489;-80
2022/09/26 14:46:26;;;;;;;;;;;;;;;15.45;66.02;99705.58;1634039;86;20463;-80
2022/09/26 14:49:22;;;;;;;;;;;;;;;15.46;65.98;99718.15;1658563;86;20135;-80
2022/09/26 14:52:12;;;;;;;;;;;;;;;15.47;66.06;99717.23;1620216;86;20140;-80
2022/09/26 14:54:59;;;;;;;;;;;;;;;15.48;66.00;99722.82;1654170;86;20111;-82
2022/09/26 14:57:46;;;;;;;;;;;;;;;15.48;66.03;99722.82;1633322;86;20136;-80
2022/09/26 15:00:38;;;;;;;;;;;;;;;15.48;66.05;99726.27;1639684;86;20117;-80
2022/09/26 15:03:22;;;;;;;;;;;;;;;15.45;65.94;99722.98;1624851;86;20123;-81
2022/09/26 15:06:09;;;;;;;;;;;;;;;15.42;65.89;99720.06;1637735;84;20113;-78
2022/09/26 15:08:54;;;;;;;;;;;;;;;15.39;65.83;99723.28;1611664;87;20450;-81
2022/09/26 15:11:44;;;;;;;;;;;;;;;15.34;65.91;99715.70;1636124;86;20409;-81